createdAt,value
2022-12-06T00:02:14.581Z,95002.22
2022-12-06T00:04:41.215Z,95006.47
2022-12-06T00:07:07.911Z,95003.84
2022-12-06T00:09:34.570Z,95007.88
2022-12-06T00:12:01.365Z,95005.25
2022-12-06T00:14:28.150Z,95007.25
2022-12-06T00:16:54.915Z,95007.66
2022-12-06T00:19:24.288Z,95008.66
2022-12-06T00:21:51.366Z,95012.06
2022-12-06T00:24:19.677Z,95012.69
2022-12-06T00:26:48.379Z,95019.13
2022-12-06T00:29:16.841Z,95012.25
2022-12-06T00:31:43.736Z,95015.69
2022-12-06T00:34:10.414Z,95009.66
2022-12-06T00:36:40.256Z,95015.31
2022-12-06T00:39:09.230Z,95014.69
2022-12-06T00:41:36.034Z,95014.06
2022-12-06T00:44:02.693Z,95014.88
2022-12-06T00:46:31.363Z,95016.88
2022-12-06T00:49:00.053Z,95017.69
2022-12-06T00:51:28.322Z,95015.06
2022-12-06T00:53:56.466Z,95010.84
2022-12-06T00:56:23.282Z,95010.66
2022-12-06T00:58:49.953Z,95002.41
2022-12-06T01:01:20.354Z,95001.78
2022-12-06T01:03:51.390Z,95007.22
2022-12-06T01:06:20.409Z,94997.31
2022-12-06T01:08:47.038Z,95002.53
2022-12-06T01:11:16.325Z,94998.94
2022-12-06T01:13:43.605Z,95007.59
2022-12-06T01:16:12.400Z,95008.59
2022-12-06T01:18:39.816Z,94997.13
2022-12-06T01:21:07.580Z,95000.34
2022-12-06T01:23:34.701Z,95003.97
2022-12-06T01:26:01.684Z,94996.31
2022-12-06T01:28:29.569Z,94991.06
2022-12-06T01:30:56.208Z,94992.06
2022-12-06T01:33:22.827Z,94996.50
2022-12-06T01:35:49.399Z,94994.50
2022-12-06T01:38:15.944Z,94986.19
2022-12-06T01:40:45.283Z,94988.00
2022-12-06T01:43:34.015Z,94987.44
2022-12-06T01:46:06.357Z,94980.78
2022-12-06T01:48:33.807Z,94973.25
2022-12-06T01:51:01.380Z,94969.88
2022-12-06T01:53:28.092Z,94972.28
2022-12-06T01:55:54.854Z,94979.16
2022-12-06T01:58:25.265Z,94977.19
2022-12-06T02:00:53.696Z,94979.91
2022-12-06T02:03:23.967Z,94983.16
2022-12-06T02:05:51.588Z,94982.53
2022-12-06T02:08:20.241Z,94989.19
2022-12-06T02:10:46.914Z,94982.97
2022-12-06T02:13:14.254Z,94980.28
2022-12-06T02:15:58.497Z,94976.47
2022-12-06T02:18:34.941Z,94971.06
2022-12-06T02:21:13.873Z,94970.88
2022-12-06T02:24:04.446Z,94964.19
2022-12-06T02:26:39.235Z,94958.78
2022-12-06T02:29:33.657Z,94964.00
2022-12-06T02:32:08.217Z,94950.91
2022-12-06T02:34:43.224Z,94949.47
2022-12-06T02:37:13.008Z,94954.09
2022-12-06T02:39:44.971Z,94955.72
2022-12-06T02:42:16.016Z,94952.28
2022-12-06T02:44:47.329Z,94951.66
2022-12-06T02:47:18.383Z,94944.44
2022-12-06T02:49:49.582Z,94938.75
2022-12-06T02:52:19.115Z,94937.94
2022-12-06T02:54:48.293Z,94926.91
2022-12-06T02:57:14.825Z,94933.34
2022-12-06T02:59:50.829Z,94922.50
2022-12-06T03:02:19.843Z,94919.53
2022-12-06T03:05:00.009Z,94921.59
2022-12-06T03:07:37.657Z,94909.28
2022-12-06T03:10:22.696Z,94920.00
2022-12-06T03:13:01.293Z,94914.66
2022-12-06T03:15:38.668Z,94913.75
2022-12-06T03:18:12.670Z,94910.78
2022-12-06T03:20:44.671Z,94924.75
2022-12-06T03:23:15.457Z,94912.78
2022-12-06T03:25:45.046Z,94915.84
2022-12-06T03:28:14.310Z,94909.63
2022-12-06T03:30:44.563Z,94902.00
2022-12-06T03:33:14.452Z,94897.38
2022-12-06T03:35:42.352Z,94901.63
2022-12-06T03:38:11.902Z,94903.44
2022-12-06T03:40:43.941Z,94894.75
2022-12-06T03:43:11.019Z,94898.19
2022-12-06T03:45:42.891Z,94892.94
2022-12-06T03:48:14.537Z,94893.34
2022-12-06T03:50:45.137Z,94892.53
2022-12-06T03:53:11.769Z,94900.44
2022-12-06T03:55:38.594Z,94897.78
2022-12-06T03:58:05.129Z,94891.06
2022-12-06T04:00:31.677Z,94889.75
2022-12-06T04:02:58.221Z,94876.28
2022-12-06T04:05:26.144Z,94887.00
2022-12-06T04:07:52.763Z,94890.06
2022-12-06T04:10:19.559Z,94886.81
2022-12-06T04:13:01.122Z,94883.19
2022-12-06T04:15:29.197Z,94879.28
2022-12-06T04:18:13.541Z,94875.34
2022-12-06T04:21:02.489Z,94874.41
2022-12-06T04:23:30.311Z,94886.94
2022-12-06T04:25:56.889Z,94881.72
2022-12-06T04:28:42.362Z,94881.53
2022-12-06T04:31:27.868Z,94886.75
2022-12-06T04:34:13.215Z,94883.13
2022-12-06T04:37:00.288Z,94889.00
2022-12-06T04:39:27.343Z,94884.56
2022-12-06T04:42:12.459Z,94899.66
2022-12-06T04:44:39.146Z,94886.75
2022-12-06T04:47:06.048Z,94886.56
2022-12-06T04:49:32.751Z,94893.00
2022-12-06T04:52:01.121Z,94887.56
2022-12-06T04:54:29.824Z,94885.56
2022-12-06T04:56:57.473Z,94885.13
2022-12-06T04:59:24.362Z,94888.94
2022-12-06T05:01:51.019Z,94889.56
2022-12-06T05:04:17.683Z,94891.38
2022-12-06T05:06:44.366Z,94886.13
2022-12-06T05:09:12.894Z,94888.28
2022-12-06T05:11:39.929Z,94882.91
2022-12-06T05:14:06.779Z,94884.88
2022-12-06T05:16:33.439Z,94888.13
2022-12-06T05:18:59.993Z,94888.28
2022-12-06T05:21:26.700Z,94882.44
2022-12-06T05:23:54.641Z,94899.66
2022-12-06T05:26:24.588Z,94905.59
2022-12-06T05:28:51.326Z,94899.03
2022-12-06T05:31:18.489Z,94895.59
2022-12-06T05:33:45.492Z,94890.41
2022-12-06T05:36:14.625Z,94896.41
2022-12-06T05:38:41.331Z,94885.19
2022-12-06T05:41:08.136Z,94894.53
2022-12-06T05:43:36.043Z,94890.16
2022-12-06T05:46:02.829Z,94886.38
2022-12-06T05:48:29.658Z,94877.53
2022-12-06T05:50:56.211Z,94877.72
2022-12-06T05:53:22.981Z,94889.00
2022-12-06T05:55:49.746Z,94881.50
2022-12-06T05:58:17.888Z,94878.53
2022-12-06T06:00:48.394Z,94882.94
2022-12-06T06:03:15.230Z,94888.81
2022-12-06T06:05:46.331Z,94893.16
2022-12-06T06:08:13.360Z,94889.38
2022-12-06T06:10:39.961Z,94886.75
2022-12-06T06:13:06.487Z,94891.34
2022-12-06T06:15:33.131Z,94894.16
2022-12-06T06:18:01.032Z,94895.78
2022-12-06T06:20:27.692Z,94894.16
2022-12-06T06:22:54.248Z,94894.16
2022-12-06T06:25:20.772Z,94894.16
2022-12-06T06:27:47.397Z,94892.53
2022-12-06T06:30:14.509Z,94896.34
2022-12-06T06:32:41.185Z,94896.16
2022-12-06T06:35:09.763Z,94891.91
2022-12-06T06:37:36.321Z,94889.31
2022-12-06T06:40:04.074Z,94884.06
2022-12-06T06:42:30.751Z,94884.88
2022-12-06T06:44:57.316Z,94884.69
2022-12-06T06:47:23.876Z,94890.31
2022-12-06T06:49:50.672Z,94885.88
2022-12-06T06:52:19.938Z,94887.50
2022-12-06T06:54:46.475Z,94888.41
2022-12-06T06:57:17.601Z,94882.75
2022-12-06T06:59:45.280Z,94890.06
2022-12-06T07:02:13.118Z,94886.88
2022-12-06T07:04:40.288Z,94884.00
2022-12-06T07:07:06.935Z,94876.16
2022-12-06T07:09:34.868Z,94884.00
2022-12-06T07:12:01.411Z,94876.97
2022-12-06T07:14:27.973Z,94876.78
2022-12-06T07:16:54.608Z,94885.25
2022-12-06T07:19:21.373Z,94884.13
2022-12-06T07:21:48.952Z,94888.00
2022-12-06T07:24:15.489Z,94884.81
2022-12-06T07:26:43.375Z,94883.13
2022-12-06T07:29:09.929Z,94874.09
2022-12-06T07:31:36.528Z,94883.09
2022-12-06T07:34:03.230Z,94888.50
2022-12-06T07:36:31.948Z,94891.53
2022-12-06T07:38:59.642Z,94891.78
2022-12-06T07:41:47.725Z,94906.16
2022-12-06T07:44:35.034Z,94902.84
2022-12-06T07:47:01.914Z,94898.00
2022-12-06T07:49:29.025Z,94896.28
2022-12-06T07:51:56.352Z,94899.16
2022-12-06T07:54:23.364Z,94895.97
2022-12-06T07:56:50.266Z,94893.09
2022-12-06T07:59:18.317Z,94893.97
2022-12-06T08:01:44.976Z,94897.72
2022-12-06T08:04:11.685Z,94906.28
2022-12-06T08:06:38.685Z,94905.81
2022-12-06T08:09:05.869Z,94894.34
2022-12-06T08:11:32.810Z,94896.22
2022-12-06T08:13:59.356Z,94899.03
2022-12-06T08:16:27.258Z,94900.53
2022-12-06T08:18:54.859Z,94898.50
2022-12-06T08:21:21.427Z,94901.06
2022-12-06T08:23:47.970Z,94889.44
2022-12-06T08:26:16.360Z,94892.66
2022-12-06T08:28:43.399Z,94898.03
2022-12-06T08:31:12.864Z,94895.66
2022-12-06T08:33:41.369Z,94891.34
2022-12-06T08:36:08.978Z,94891.16
2022-12-06T08:38:36.284Z,94888.38
2022-12-06T08:41:03.003Z,94892.97
2022-12-06T08:43:31.011Z,94885.28
2022-12-06T08:45:58.029Z,94887.84
2022-12-06T08:48:24.661Z,94889.63
2022-12-06T08:50:52.537Z,94898.13
2022-12-06T08:53:19.069Z,94895.16
2022-12-06T08:55:58.701Z,94893.03
2022-12-06T08:58:27.109Z,94893.47
2022-12-06T09:00:53.636Z,94893.56
2022-12-06T09:03:20.158Z,94892.66
2022-12-06T09:05:46.740Z,94896.69
2022-12-06T09:08:14.988Z,94889.72
2022-12-06T09:10:42.635Z,94885.16
2022-12-06T09:13:09.409Z,94884.50
2022-12-06T09:15:37.457Z,94885.97
2022-12-06T09:18:04.156Z,94876.84
2022-12-06T09:20:30.700Z,94882.88
2022-12-06T09:22:57.902Z,94878.13
2022-12-06T09:25:25.802Z,94882.13
2022-12-06T09:27:53.382Z,94868.56
2022-12-06T09:30:19.961Z,94876.50
2022-12-06T09:32:48.281Z,94860.38
2022-12-06T09:35:15.978Z,94863.31
2022-12-06T09:37:44.049Z,94873.75
2022-12-06T09:40:18.272Z,94869.31
2022-12-06T09:43:01.945Z,94874.53
2022-12-06T09:45:40.337Z,94863.50
2022-12-06T09:48:30.865Z,94860.91
2022-12-06T09:51:06.924Z,94862.50
2022-12-06T09:53:47.506Z,94858.91
2022-12-06T09:56:24.515Z,94848.56
2022-12-06T09:59:05.388Z,94851.44
2022-12-06T10:01:52.604Z,94840.22
2022-12-06T10:04:39.344Z,94839.22
2022-12-06T10:07:14.896Z,94836.94
2022-12-06T10:09:51.555Z,94836.91
2022-12-06T10:12:29.829Z,94807.19
2022-12-06T10:15:15.405Z,94808.16
2022-12-06T10:18:01.007Z,94816.19
2022-12-06T10:20:35.142Z,94814.34
2022-12-06T10:23:14.694Z,94817.06
2022-12-06T10:25:44.830Z,94807.66
2022-12-06T10:28:13.296Z,94806.19
2022-12-06T10:30:48.557Z,94797.81
2022-12-06T10:33:21.109Z,94805.31
2022-12-06T10:35:53.214Z,94808.66
2022-12-06T10:38:27.287Z,94791.75
2022-12-06T10:41:03.152Z,94806.69
2022-12-06T10:43:37.782Z,94803.84
2022-12-06T10:46:30.005Z,94806.03
2022-12-06T10:49:04.485Z,94797.56
2022-12-06T10:51:39.571Z,94784.06
2022-12-06T10:54:19.912Z,94790.50
2022-12-06T10:56:48.860Z,94790.84
2022-12-06T10:59:27.253Z,94782.03
2022-12-06T11:01:59.979Z,94780.69
2022-12-06T11:04:32.212Z,94770.34
2022-12-06T11:07:02.739Z,94779.78
2022-12-06T11:09:34.266Z,94774.13
2022-12-06T11:12:01.108Z,94776.88
2022-12-06T11:14:36.468Z,94778.28
2022-12-06T11:17:12.037Z,94774.88
2022-12-06T11:19:39.882Z,94766.88
2022-12-06T11:22:17.778Z,94779.31
2022-12-06T11:24:50.684Z,94765.22
2022-12-06T11:27:22.817Z,94757.44
2022-12-06T11:29:50.379Z,94758.88
2022-12-06T11:32:19.090Z,94756.19
2022-12-06T11:34:48.562Z,94749.91
2022-12-06T11:37:17.875Z,94750.53
2022-12-06T11:39:44.840Z,94752.13
2022-12-06T11:42:15.060Z,94745.88
2022-12-06T11:44:49.429Z,94745.06
2022-12-06T11:47:24.395Z,94745.47
2022-12-06T11:49:54.233Z,94742.25
2022-12-06T11:52:26.028Z,94746.63
2022-12-06T11:54:57.340Z,94744.78
2022-12-06T11:57:28.196Z,94741.69
2022-12-06T12:00:14.351Z,94743.00
2022-12-06T12:02:44.854Z,94740.81
2022-12-06T12:05:19.533Z,94747.63
2022-12-06T12:07:50.635Z,94741.41
2022-12-06T12:10:27.806Z,94733.94
2022-12-06T12:13:13.298Z,94742.13
2022-12-06T12:15:47.604Z,94739.72
2022-12-06T12:18:22.409Z,94738.09
2022-12-06T12:20:49.565Z,94732.28
2022-12-06T12:23:19.581Z,94718.81
2022-12-06T12:26:00.397Z,94719.44
2022-12-06T12:28:29.010Z,94722.88
2022-12-06T12:30:56.843Z,94719.25
2022-12-06T12:33:25.700Z,94708.94
2022-12-06T12:35:56.421Z,94719.19
2022-12-06T12:38:28.373Z,94730.06
2022-12-06T12:40:57.888Z,94717.59
2022-12-06T12:43:26.858Z,94716.41
2022-12-06T12:46:17.949Z,94728.66
2022-12-06T12:48:48.704Z,94718.19
2022-12-06T12:51:39.202Z,94710.75
2022-12-06T12:54:20.155Z,94720.84
2022-12-06T12:56:46.762Z,94712.16
2022-12-06T12:59:16.160Z,94713.53
2022-12-06T13:01:47.122Z,94716.75
2022-12-06T13:04:31.251Z,94714.50
2022-12-06T13:07:01.599Z,94711.66
2022-12-06T13:09:32.112Z,94720.09
2022-12-06T13:12:03.939Z,94716.09
2022-12-06T13:14:32.481Z,94709.44
2022-12-06T13:17:05.299Z,94705.22
2022-12-06T13:19:38.259Z,94703.44
2022-12-06T13:22:07.187Z,94706.00
2022-12-06T13:24:37.404Z,94705.03
2022-12-06T13:27:11.567Z,94704.44
2022-12-06T13:29:42.393Z,94700.19
2022-12-06T13:32:14.153Z,94697.75
2022-12-06T13:34:49.133Z,94705.59
2022-12-06T13:37:36.499Z,94703.41
2022-12-06T13:40:05.859Z,94706.66
2022-12-06T13:42:45.480Z,94702.44
2022-12-06T13:45:39.996Z,94703.03
2022-12-06T13:48:34.628Z,94708.88
2022-12-06T13:51:04.190Z,94698.38
2022-12-06T13:53:33.928Z,94718.53
2022-12-06T13:56:02.088Z,94720.09
2022-12-06T13:58:53.040Z,94707.94
2022-12-06T14:01:49.824Z,94709.75
2022-12-06T14:09:39.866Z,94735.81
2022-12-06T14:12:09.160Z,94735.59
2022-12-06T14:14:36.106Z,94733.00
2022-12-06T14:17:05.552Z,94739.56
2022-12-06T14:19:40.997Z,94733.09
2022-12-06T14:22:20.124Z,94723.59
2022-12-06T14:24:58.779Z,94724.88
2022-12-06T14:27:28.620Z,94726.66
2022-12-06T14:30:02.295Z,94725.50
2022-12-06T14:32:33.869Z,94726.16
2022-12-06T14:35:07.144Z,94722.25
2022-12-06T14:37:35.076Z,94726.72
2022-12-06T14:40:30.001Z,94715.47
2022-12-06T14:43:03.612Z,94721.09
2022-12-06T14:45:32.517Z,94716.22
2022-12-06T14:48:00.428Z,94713.81
2022-12-06T14:50:32.283Z,94710.00
2022-12-06T14:53:03.845Z,94710.00
2022-12-06T14:55:32.740Z,94705.56
2022-12-06T14:58:01.289Z,94706.19
2022-12-06T15:00:35.344Z,94710.25
2022-12-06T15:03:22.684Z,94700.97
2022-12-06T15:05:57.144Z,94700.16
2022-12-06T15:08:34.468Z,94705.59
2022-12-06T15:11:03.132Z,94705.81
2022-12-06T15:13:30.494Z,94703.59
2022-12-06T15:16:03.978Z,94707.22
2022-12-06T15:18:33.060Z,94695.50
2022-12-06T15:20:59.803Z,94692.91
2022-12-06T15:23:36.071Z,94695.50
2022-12-06T15:26:04.079Z,94690.06
2022-12-06T15:28:30.665Z,94691.28
2022-12-06T15:30:57.267Z,94698.34
2022-12-06T15:33:24.909Z,94691.44
2022-12-06T15:35:52.022Z,94692.47
2022-12-06T15:38:18.602Z,94698.75
2022-12-06T15:40:49.388Z,94701.97
2022-12-06T15:43:29.052Z,94700.97
2022-12-06T15:45:55.958Z,94705.81
2022-12-06T15:48:22.508Z,94699.38
2022-12-06T15:50:49.168Z,94697.34
2022-12-06T15:53:18.338Z,94692.72
2022-12-06T15:55:46.591Z,94696.56
2022-12-06T15:58:13.118Z,94701.41
2022-12-06T16:00:39.715Z,94706.84
2022-12-06T16:03:07.700Z,94697.78
2022-12-06T16:05:34.388Z,94702.00
2022-12-06T16:08:01.035Z,94696.75
2022-12-06T16:10:48.731Z,94694.16
2022-12-06T16:13:21.563Z,94702.41
2022-12-06T16:15:48.171Z,94705.84
2022-12-06T16:18:14.739Z,94708.53
2022-12-06T16:20:41.544Z,94698.09
2022-12-06T16:23:43.377Z,94697.34
2022-12-06T16:26:17.548Z,94698.38
2022-12-06T16:28:45.432Z,94691.53
2022-12-06T16:31:13.849Z,94691.53
2022-12-06T16:33:40.673Z,94691.34
2022-12-06T16:36:12.401Z,94686.91
2022-12-06T16:38:39.031Z,94691.94
2022-12-06T16:41:08.808Z,94693.56
2022-12-06T16:43:35.241Z,94699.41
2022-12-06T16:46:21.113Z,94703.66
2022-12-06T16:48:52.546Z,94710.72
2022-12-06T16:51:22.318Z,94698.00
2022-12-06T16:53:49.663Z,94706.28
2022-12-06T16:56:16.211Z,94716.97
2022-12-06T16:58:42.770Z,94716.16
2022-12-06T17:01:22.294Z,94719.59
2022-12-06T17:03:53.089Z,94716.75
2022-12-06T17:06:20.202Z,94719.38
2022-12-06T17:08:47.123Z,94719.19
2022-12-06T17:11:37.252Z,94717.38
2022-12-06T17:14:04.217Z,94717.78
2022-12-06T17:16:35.641Z,94716.38
2022-12-06T17:19:02.524Z,94709.91
2022-12-06T17:21:29.143Z,94708.09
2022-12-06T17:23:56.966Z,94716.78
2022-12-06T17:26:23.546Z,94717.97
2022-12-06T17:28:50.306Z,94727.47
2022-12-06T17:31:16.899Z,94730.09
2022-12-06T17:33:44.824Z,94731.09
2022-12-06T17:36:12.763Z,94735.28
2022-12-06T17:38:39.949Z,94733.28
2022-12-06T17:41:32.150Z,94735.72
2022-12-06T17:43:58.727Z,94736.34
2022-12-06T17:46:25.431Z,94735.94
2022-12-06T17:48:53.336Z,94734.13
2022-12-06T17:51:19.848Z,94731.28
2022-12-06T17:53:46.411Z,94737.34
2022-12-06T17:56:24.324Z,94738.16
2022-12-06T17:58:53.371Z,94735.94
2022-12-06T18:01:19.998Z,94748.03
2022-12-06T18:03:46.566Z,94749.84
2022-12-06T18:06:14.433Z,94746.41
2022-12-06T18:08:40.983Z,94744.81
2022-12-06T18:11:07.543Z,94747.03
2022-12-06T18:13:34.080Z,94735.72
2022-12-06T18:16:00.842Z,94739.97
2022-12-06T18:18:27.561Z,94741.59
2022-12-06T18:20:54.121Z,94734.09
2022-12-06T18:23:22.072Z,94739.06
2022-12-06T18:25:49.076Z,94734.41
2022-12-06T18:28:15.630Z,94738.22
2022-12-06T18:30:42.275Z,94743.31
2022-12-06T18:33:08.834Z,94738.13
2022-12-06T18:35:35.974Z,94742.78
2022-12-06T18:38:02.650Z,94745.81
2022-12-06T18:40:32.952Z,94751.88
2022-12-06T18:42:59.518Z,94747.22
2022-12-06T18:45:26.175Z,94745.00
2022-12-06T18:47:52.728Z,94745.22
2022-12-06T18:50:19.287Z,94744.59
2022-12-06T18:52:45.787Z,94748.66
2022-12-06T18:55:12.343Z,94746.03
2022-12-06T18:57:40.319Z,94752.28
2022-12-06T19:00:08.189Z,94752.28
2022-12-06T19:02:34.762Z,94749.03
2022-12-06T19:05:02.013Z,94750.84
2022-12-06T19:07:28.736Z,94755.91
2022-12-06T19:09:55.275Z,94756.91
2022-12-06T19:12:21.808Z,94755.91
2022-12-06T19:14:49.691Z,94755.91
2022-12-06T19:17:16.202Z,94756.91
2022-12-06T19:19:42.803Z,94758.53
2022-12-06T19:22:09.328Z,94753.28
2022-12-06T19:24:36.235Z,94745.63
2022-12-06T19:27:02.784Z,94750.84
2022-12-06T19:29:29.750Z,94744.81
2022-12-06T19:31:57.659Z,94735.94
2022-12-06T19:34:26.377Z,94742.19
2022-12-06T19:36:54.839Z,94745.00
2022-12-06T19:39:22.070Z,94747.22
2022-12-06T19:42:07.094Z,94740.56
2022-12-06T19:44:34.397Z,94734.31
2022-12-06T19:47:02.378Z,94745.63
2022-12-06T19:49:29.157Z,94752.69
2022-12-06T19:51:55.707Z,94757.91
2022-12-06T19:54:23.951Z,94756.09
2022-12-06T19:56:53.193Z,94752.69
2022-12-06T19:59:20.240Z,94755.50
2022-12-06T20:01:48.006Z,94755.50
2022-12-06T20:04:17.906Z,94753.69
2022-12-06T20:06:44.532Z,94749.44
2022-12-06T20:09:11.745Z,94746.81
2022-12-06T20:11:58.241Z,94746.00
2022-12-06T20:14:25.103Z,94749.44
2022-12-06T20:16:51.896Z,94755.28
2022-12-06T20:19:20.839Z,94757.91
2022-12-06T20:21:48.545Z,94753.88
2022-12-06T20:24:18.743Z,94750.25
2022-12-06T20:26:47.061Z,94762.53
2022-12-06T20:29:13.645Z,94755.47
2022-12-06T20:31:40.270Z,94763.34
2022-12-06T20:34:13.109Z,94754.69
2022-12-06T20:36:43.549Z,94756.50
2022-12-06T20:39:20.801Z,94753.88
2022-12-06T20:41:48.641Z,94759.72
2022-12-06T20:44:15.350Z,94757.28
2022-12-06T20:46:42.097Z,94760.13
2022-12-06T20:49:09.497Z,94760.13
2022-12-06T20:51:36.483Z,94755.69
2022-12-06T20:54:06.973Z,94760.94
2022-12-06T20:56:35.544Z,94763.94
2022-12-06T20:59:04.065Z,94754.88
2022-12-06T21:01:33.805Z,94753.25
2022-12-06T21:04:00.447Z,94756.06
2022-12-06T21:06:27.177Z,94754.88
2022-12-06T21:08:54.305Z,94755.06
2022-12-06T21:11:24.427Z,94753.47
2022-12-06T21:13:53.256Z,94752.66
2022-12-06T21:16:21.801Z,94757.69
2022-12-06T21:18:49.350Z,94755.28
2022-12-06T21:21:24.238Z,94756.06
2022-12-06T21:23:50.841Z,94763.13
2022-12-06T21:26:17.502Z,94751.03
2022-12-06T21:28:45.523Z,94755.47
2022-12-06T21:31:12.173Z,94763.34
2022-12-06T21:33:38.858Z,94756.28
2022-12-06T21:36:07.013Z,94752.84
2022-12-06T21:38:34.235Z,94749.41
2022-12-06T21:41:05.185Z,94752.03
2022-12-06T21:43:31.717Z,94758.91
2022-12-06T21:46:04.744Z,94757.84
2022-12-06T21:48:31.353Z,94762.31
2022-12-06T21:51:01.368Z,94761.53
2022-12-06T21:53:27.931Z,94759.28
2022-12-06T21:55:54.553Z,94755.88
2022-12-06T21:58:24.110Z,94759.50
2022-12-06T22:00:50.735Z,94766.53
2022-12-06T22:03:22.922Z,94754.25
2022-12-06T22:05:50.024Z,94750.81
2022-12-06T22:08:16.621Z,94752.44
2022-12-06T22:10:43.211Z,94756.88
2022-12-06T22:13:09.979Z,94762.31
2022-12-06T22:15:36.996Z,94753.63
2022-12-06T22:18:04.418Z,94769.16
2022-12-06T22:20:32.334Z,94762.50
2022-12-06T22:22:59.987Z,94769.38
2022-12-06T22:25:26.742Z,94763.94
2022-12-06T22:27:54.698Z,94764.13
2022-12-06T22:30:22.060Z,94761.50
2022-12-06T22:32:48.655Z,94749.78
2022-12-06T22:35:16.429Z,94750.41
2022-12-06T22:37:44.466Z,94752.22
2022-12-06T22:40:11.575Z,94754.84
2022-12-06T22:42:38.389Z,94754.84
2022-12-06T22:45:06.032Z,94754.03
2022-12-06T22:47:32.555Z,94747.78
2022-12-06T22:49:59.276Z,94756.66
2022-12-06T22:52:26.002Z,94755.25
2022-12-06T22:54:53.893Z,94748.59
2022-12-06T22:57:20.498Z,94756.66
2022-12-06T22:59:47.074Z,94756.66
2022-12-06T23:02:13.690Z,94761.91
2022-12-06T23:04:40.334Z,94762.72
2022-12-06T23:07:06.873Z,94760.88
2022-12-06T23:09:33.379Z,94753.63
2022-12-06T23:12:01.245Z,94765.13
2022-12-06T23:14:27.784Z,94759.72
2022-12-06T23:16:54.362Z,94762.38
2022-12-06T23:19:20.904Z,94752.38
2022-12-06T23:21:48.061Z,94753.59
2022-12-06T23:24:14.798Z,94754.81
2022-12-06T23:26:43.323Z,94751.41
2022-12-06T23:29:11.549Z,94748.56
2022-12-06T23:31:40.415Z,94741.91
2022-12-06T23:34:11.064Z,94749.38
2022-12-06T23:36:38.185Z,94743.53
2022-12-06T23:39:05.854Z,94739.50
2022-12-06T23:41:33.748Z,94743.34
2022-12-06T23:44:00.431Z,94741.53
2022-12-06T23:46:30.621Z,94740.91
2022-12-06T23:48:57.883Z,94746.34
2022-12-06T23:51:26.131Z,94748.78
2022-12-06T23:53:54.660Z,94745.53
2022-12-06T23:56:22.251Z,94749.78
2022-12-06T23:58:50.453Z,94752.59
